sensor_id;sensor_type;location;lat;lon;timestamp;pressure;altitude;pressure_sealevel;temperature;humidity
63351;BME280;64988;51.058;17.040;2023-03-29T00:03:45;100837.25;;;0.69;58.30
63351;BME280;64988;51.058;17.040;2023-03-29T00:09:13;100837.13;;;0.74;58.16
63351;BME280;64988;51.058;17.040;2023-03-29T00:14:40;100821.28;;;0.71;57.73
63351;BME280;64988;51.058;17.040;2023-03-29T00:20:08;100834.28;;;0.50;59.22
63351;BME280;64988;51.058;17.040;2023-03-29T00:25:36;100829.44;;;0.65;58.50
63351;BME280;64988;51.058;17.040;2023-03-29T00:31:09;100828.47;;;0.67;59.09
63351;BME280;64988;51.058;17.040;2023-03-29T00:36:37;100828.59;;;0.63;58.61
63351;BME280;64988;51.058;17.040;2023-03-29T00:42:11;100828.75;;;0.58;59.24
63351;BME280;64988;51.058;17.040;2023-03-29T00:47:43;100820.72;;;0.60;59.01
63351;BME280;64988;51.058;17.040;2023-03-29T00:53:19;100825.22;;;0.58;59.05
63351;BME280;64988;51.058;17.040;2023-03-29T00:59:06;100815.97;;;0.71;58.83
63351;BME280;64988;51.058;17.040;2023-03-29T01:04:50;100814.03;;;0.76;58.20
63351;BME280;64988;51.058;17.040;2023-03-29T01:10:28;100801.91;;;0.95;57.67
63351;BME280;64988;51.058;17.040;2023-03-29T01:15:59;100794.94;;;0.91;57.39
63351;BME280;64988;51.058;17.040;2023-03-29T01:21:41;100789.72;;;0.88;58.82
63351;BME280;64988;51.058;17.040;2023-03-29T01:27:16;100785.72;;;1.02;58.43
63351;BME280;64988;51.058;17.040;2023-03-29T01:32:54;100790.22;;;1.00;58.01
63351;BME280;64988;51.058;17.040;2023-03-29T01:39:01;100783.94;;;1.03;58.28
63351;BME280;64988;51.058;17.040;2023-03-29T01:50:16;100783.81;;;0.80;58.01
63351;BME280;64988;51.058;17.040;2023-03-29T01:55:51;100781.44;;;0.71;59.19
63351;BME280;64988;51.058;17.040;2023-03-29T02:01:24;100777.91;;;0.70;59.97
63351;BME280;64988;51.058;17.040;2023-03-29T02:06:56;100775.97;;;0.75;59.24
63351;BME280;64988;51.058;17.040;2023-03-29T02:12:25;100779.28;;;0.83;59.05
63351;BME280;64988;51.058;17.040;2023-03-29T02:17:53;100774.25;;;0.74;59.49
63351;BME280;64988;51.058;17.040;2023-03-29T02:23:24;100767.75;;;0.83;59.28
63351;BME280;64988;51.058;17.040;2023-03-29T02:28:53;100770.03;;;0.95;59.17
63351;BME280;64988;51.058;17.040;2023-03-29T02:39:53;100766.28;;;1.00;58.72
63351;BME280;64988;51.058;17.040;2023-03-29T02:45:21;100750.09;;;1.08;58.50
63351;BME280;64988;51.058;17.040;2023-03-29T02:50:54;100750.88;;;1.12;58.02
63351;BME280;64988;51.058;17.040;2023-03-29T02:56:23;100744.53;;;1.16;58.31
63351;BME280;64988;51.058;17.040;2023-03-29T03:01:51;100744.38;;;1.20;58.55
63351;BME280;64988;51.058;17.040;2023-03-29T03:07:19;100744.81;;;1.33;57.64
63351;BME280;64988;51.058;17.040;2023-03-29T03:12:48;100734.56;;;1.22;58.04
63351;BME280;64988;51.058;17.040;2023-03-29T03:18:15;100731.25;;;1.42;57.66
63351;BME280;64988;51.058;17.040;2023-03-29T03:23:44;100716.63;;;1.53;57.63
63351;BME280;64988;51.058;17.040;2023-03-29T03:29:13;100709.34;;;1.58;57.48
63351;BME280;64988;51.058;17.040;2023-03-29T03:35:03;100706.94;;;1.76;56.99
63351;BME280;64988;51.058;17.040;2023-03-29T03:40:31;100700.38;;;1.86;56.68
63351;BME280;64988;51.058;17.040;2023-03-29T03:45:59;100686.06;;;1.88;56.24
63351;BME280;64988;51.058;17.040;2023-03-29T03:51:29;100688.22;;;1.79;56.76
63351;BME280;64988;51.058;17.040;2023-03-29T03:56:57;100684.28;;;1.89;56.44
63351;BME280;64988;51.058;17.040;2023-03-29T04:02:37;100684.00;;;1.96;56.19
63351;BME280;64988;51.058;17.040;2023-03-29T04:08:06;100685.84;;;1.94;56.50
63351;BME280;64988;51.058;17.040;2023-03-29T04:14:00;100681.75;;;2.09;56.62
63351;BME280;64988;51.058;17.040;2023-03-29T04:19:57;100682.38;;;2.16;56.35
63351;BME280;64988;51.058;17.040;2023-03-29T04:25:31;100664.88;;;2.32;56.38
63351;BME280;64988;51.058;17.040;2023-03-29T04:31:36;100670.38;;;2.27;56.51
63351;BME280;64988;51.058;17.040;2023-03-29T04:37:23;100667.44;;;2.35;56.43
63351;BME280;64988;51.058;17.040;2023-03-29T04:42:53;100670.91;;;2.80;55.61
63351;BME280;64988;51.058;17.040;2023-03-29T04:48:20;100670.34;;;2.94;55.41
63351;BME280;64988;51.058;17.040;2023-03-29T04:53:49;100673.72;;;2.97;55.54
63351;BME280;64988;51.058;17.040;2023-03-29T04:59:17;100668.66;;;4.11;54.37
63351;BME280;64988;51.058;17.040;2023-03-29T05:04:45;100670.69;;;6.63;50.26
63351;BME280;64988;51.058;17.040;2023-03-29T05:10:16;100653.22;;;8.74;44.98
63351;BME280;64988;51.058;17.040;2023-03-29T05:15:44;100653.91;;;9.82;39.67
63351;BME280;64988;51.058;17.040;2023-03-29T05:21:12;100639.75;;;10.78;36.30
63351;BME280;64988;51.058;17.040;2023-03-29T05:26:43;100650.53;;;12.39;34.54
63351;BME280;64988;51.058;17.040;2023-03-29T05:32:12;100641.00;;;13.94;31.13
63351;BME280;64988;51.058;17.040;2023-03-29T05:37:40;100645.16;;;14.99;29.25
63351;BME280;64988;51.058;17.040;2023-03-29T05:43:08;100647.78;;;15.67;28.62
63351;BME280;64988;51.058;17.040;2023-03-29T05:48:35;100640.44;;;16.98;25.78
63351;BME280;64988;51.058;17.040;2023-03-29T05:54:04;100632.94;;;18.40;24.08
63351;BME280;64988;51.058;17.040;2023-03-29T05:59:33;100638.94;;;19.35;22.42
63351;BME280;64988;51.058;17.040;2023-03-29T06:05:02;100631.13;;;19.72;21.89
63351;BME280;64988;51.058;17.040;2023-03-29T06:10:55;100627.16;;;19.91;21.38
63351;BME280;64988;51.058;17.040;2023-03-29T06:16:39;100618.53;;;20.81;20.83
63351;BME280;64988;51.058;17.040;2023-03-29T06:22:10;100629.31;;;22.42;19.07
63351;BME280;64988;51.058;17.040;2023-03-29T06:27:41;100625.97;;;21.34;19.78
63351;BME280;64988;51.058;17.040;2023-03-29T06:33:11;100640.69;;;20.09;21.02
63351;BME280;64988;51.058;17.040;2023-03-29T06:38:45;100632.47;;;19.68;21.28
63351;BME280;64988;51.058;17.040;2023-03-29T06:44:39;100625.44;;;18.67;22.66
63351;BME280;64988;51.058;17.040;2023-03-29T06:50:16;100623.22;;;18.11;23.50
63351;BME280;64988;51.058;17.040;2023-03-29T06:56:10;100621.50;;;18.70;23.74
63351;BME280;64988;51.058;17.040;2023-03-29T07:01:41;100609.09;;;18.83;22.62
63351;BME280;64988;51.058;17.040;2023-03-29T07:07:18;100611.38;;;18.54;23.13
63351;BME280;64988;51.058;17.040;2023-03-29T07:12:51;100607.63;;;18.63;23.33
63351;BME280;64988;51.058;17.040;2023-03-29T07:18:19;100615.22;;;18.85;23.64
63351;BME280;64988;51.058;17.040;2023-03-29T07:23:47;100618.75;;;19.36;23.47
63351;BME280;64988;51.058;17.040;2023-03-29T07:29:15;100606.31;;;19.50;23.38
63351;BME280;64988;51.058;17.040;2023-03-29T07:34:42;100616.81;;;20.41;22.32
63351;BME280;64988;51.058;17.040;2023-03-29T07:40:33;100615.59;;;22.71;19.91
63351;BME280;64988;51.058;17.040;2023-03-29T07:46:19;100614.00;;;24.87;17.14
63351;BME280;64988;51.058;17.040;2023-03-29T07:51:48;100607.09;;;25.18;16.42
63351;BME280;64988;51.058;17.040;2023-03-29T07:57:16;100610.06;;;24.07;17.52
63351;BME280;64988;51.058;17.040;2023-03-29T08:02:51;100611.88;;;23.15;17.53
63351;BME280;64988;51.058;17.040;2023-03-29T08:08:19;100607.97;;;22.29;18.44
63351;BME280;64988;51.058;17.040;2023-03-29T08:13:54;100596.50;;;22.40;18.76
63351;BME280;64988;51.058;17.040;2023-03-29T08:19:42;100606.34;;;23.29;18.68
63351;BME280;64988;51.058;17.040;2023-03-29T08:25:20;100582.53;;;22.86;18.12
63351;BME280;64988;51.058;17.040;2023-03-29T08:30:51;100592.09;;;23.89;17.23
63351;BME280;64988;51.058;17.040;2023-03-29T08:36:20;100582.06;;;25.32;16.60
63351;BME280;64988;51.058;17.040;2023-03-29T08:47:50;100574.25;;;27.92;14.83
63351;BME280;64988;51.058;17.040;2023-03-29T08:53:34;100577.94;;;27.86;13.47
63351;BME280;64988;51.058;17.040;2023-03-29T08:59:28;100579.78;;;28.96;13.34
63351;BME280;64988;51.058;17.040;2023-03-29T09:05:07;100570.63;;;28.59;12.88
63351;BME280;64988;51.058;17.040;2023-03-29T09:22:41;100552.72;;;26.43;15.23
63351;BME280;64988;51.058;17.040;2023-03-29T09:28:20;100558.06;;;26.05;15.38
63351;BME280;64988;51.058;17.040;2023-03-29T09:34:03;100530.59;;;25.25;16.74
63351;BME280;64988;51.058;17.040;2023-03-29T09:39:51;100526.31;;;25.09;16.28
63351;BME280;64988;51.058;17.040;2023-03-29T09:45:22;100529.78;;;24.23;17.35
63351;BME280;64988;51.058;17.040;2023-03-29T09:50:52;100527.78;;;23.82;18.04
63351;BME280;64988;51.058;17.040;2023-03-29T09:56:19;100515.09;;;21.73;20.37
63351;BME280;64988;51.058;17.040;2023-03-29T10:02:07;100512.88;;;21.54;20.49
63351;BME280;64988;51.058;17.040;2023-03-29T10:07:44;100503.88;;;21.45;21.09
63351;BME280;64988;51.058;17.040;2023-03-29T10:13:46;100493.81;;;21.15;21.06
63351;BME280;64988;51.058;17.040;2023-03-29T10:19:28;100485.72;;;21.36;21.06
63351;BME280;64988;51.058;17.040;2023-03-29T10:25:03;100482.63;;;21.91;19.68
63351;BME280;64988;51.058;17.040;2023-03-29T10:30:34;100479.38;;;22.31;20.73
63351;BME280;64988;51.058;17.040;2023-03-29T10:36:05;100481.78;;;22.91;19.58
63351;BME280;64988;51.058;17.040;2023-03-29T10:41:34;100472.78;;;22.62;18.94
63351;BME280;64988;51.058;17.040;2023-03-29T10:47:16;100459.19;;;22.96;19.27
63351;BME280;64988;51.058;17.040;2023-03-29T10:52:45;100466.91;;;22.86;18.85
63351;BME280;64988;51.058;17.040;2023-03-29T11:04:09;100445.25;;;22.62;18.45
63351;BME280;64988;51.058;17.040;2023-03-29T11:09:50;100432.81;;;23.57;18.80
63351;BME280;64988;51.058;17.040;2023-03-29T11:38:41;100401.59;;;24.99;17.30
63351;BME280;64988;51.058;17.040;2023-03-29T11:44:18;100388.13;;;24.63;17.40
63351;BME280;64988;51.058;17.040;2023-03-29T11:49:51;100378.22;;;24.15;17.51
63351;BME280;64988;51.058;17.040;2023-03-29T11:55:27;100345.34;;;23.04;17.87
63351;BME280;64988;51.058;17.040;2023-03-29T12:01:00;100356.75;;;21.72;19.56
63351;BME280;64988;51.058;17.040;2023-03-29T12:06:40;100344.41;;;20.34;20.07
63351;BME280;64988;51.058;17.040;2023-03-29T12:12:43;100343.47;;;20.42;22.10
63351;BME280;64988;51.058;17.040;2023-03-29T12:18:37;100340.09;;;20.09;22.17
63351;BME280;64988;51.058;17.040;2023-03-29T12:24:10;100334.31;;;19.73;22.33
63351;BME280;64988;51.058;17.040;2023-03-29T12:35:29;100321.84;;;19.16;22.93
63351;BME280;64988;51.058;17.040;2023-03-29T12:41:20;100313.16;;;18.88;23.32
63351;BME280;64988;51.058;17.040;2023-03-29T12:46:58;100309.06;;;18.27;23.74
63351;BME280;64988;51.058;17.040;2023-03-29T12:52:30;100296.88;;;17.81;24.75
63351;BME280;64988;51.058;17.040;2023-03-29T12:58:05;100296.88;;;17.81;24.78
63351;BME280;64988;51.058;17.040;2023-03-29T13:03:48;100297.63;;;18.24;24.01
63351;BME280;64988;51.058;17.040;2023-03-29T13:15:33;100282.06;;;18.49;23.91
63351;BME280;64988;51.058;17.040;2023-03-29T13:32:04;100267.34;;;18.98;23.11
63351;BME280;64988;51.058;17.040;2023-03-29T13:37:56;100276.25;;;18.84;22.64
63351;BME280;64988;51.058;17.040;2023-03-29T13:43:51;100253.22;;;18.62;23.00
63351;BME280;64988;51.058;17.040;2023-03-29T13:49:23;100262.34;;;19.57;22.98
63351;BME280;64988;51.058;17.040;2023-03-29T14:00:38;100244.88;;;19.58;22.18
63351;BME280;64988;51.058;17.040;2023-03-29T14:06:09;100248.56;;;19.26;22.55
63351;BME280;64988;51.058;17.040;2023-03-29T14:11:43;100241.00;;;19.36;23.14
63351;BME280;64988;51.058;17.040;2023-03-29T14:17:18;100241.50;;;19.39;23.31
63351;BME280;64988;51.058;17.040;2023-03-29T14:22:48;100237.84;;;18.69;22.36
63351;BME280;64988;51.058;17.040;2023-03-29T14:28:29;100258.53;;;18.48;22.42
63351;BME280;64988;51.058;17.040;2023-03-29T14:33:59;100254.94;;;17.99;22.59
63351;BME280;64988;51.058;17.040;2023-03-29T14:39:26;100248.56;;;17.74;24.10
63351;BME280;64988;51.058;17.040;2023-03-29T14:45:04;100240.63;;;17.47;24.08
63351;BME280;64988;51.058;17.040;2023-03-29T14:50:32;100222.34;;;17.31;24.60
63351;BME280;64988;51.058;17.040;2023-03-29T14:56:04;100217.75;;;17.31;24.65
63351;BME280;64988;51.058;17.040;2023-03-29T15:01:42;100201.66;;;17.78;24.20
63351;BME280;64988;51.058;17.040;2023-03-29T15:07:10;100209.72;;;17.22;24.85
63351;BME280;64988;51.058;17.040;2023-03-29T15:12:41;100197.56;;;17.74;24.28
63351;BME280;64988;51.058;17.040;2023-03-29T15:18:12;100200.28;;;18.31;24.21
63351;BME280;64988;51.058;17.040;2023-03-29T15:23:53;100185.25;;;18.43;24.24
63351;BME280;64988;51.058;17.040;2023-03-29T15:29:22;100181.50;;;18.44;24.64
63351;BME280;64988;51.058;17.040;2023-03-29T15:35:04;100183.41;;;17.95;25.35
63351;BME280;64988;51.058;17.040;2023-03-29T15:40:32;100209.72;;;17.22;26.58
63351;BME280;64988;51.058;17.040;2023-03-29T15:46:01;100213.97;;;16.83;27.54
63351;BME280;64988;51.058;17.040;2023-03-29T15:51:30;100212.81;;;16.59;28.37
63351;BME280;64988;51.058;17.040;2023-03-29T15:57:04;100192.53;;;16.36;29.47
63351;BME280;64988;51.058;17.040;2023-03-29T16:02:34;100192.31;;;16.29;29.62
63351;BME280;64988;51.058;17.040;2023-03-29T16:08:02;100202.56;;;16.10;30.22
63351;BME280;64988;51.058;17.040;2023-03-29T16:13:30;100214.63;;;15.90;30.47
63351;BME280;64988;51.058;17.040;2023-03-29T16:18:57;100212.78;;;15.72;30.95
63351;BME280;64988;51.058;17.040;2023-03-29T16:24:29;100206.63;;;15.70;30.68
63351;BME280;64988;51.058;17.040;2023-03-29T16:29:58;100209.81;;;15.48;31.47
63351;BME280;64988;51.058;17.040;2023-03-29T16:35:30;100223.28;;;15.22;31.72
63351;BME280;64988;51.058;17.040;2023-03-29T16:40:59;100214.59;;;14.92;32.17
63351;BME280;64988;51.058;17.040;2023-03-29T16:46:27;100210.09;;;14.73;32.76
63351;BME280;64988;51.058;17.040;2023-03-29T16:51:54;100198.59;;;14.52;32.95
63351;BME280;64988;51.058;17.040;2023-03-29T16:57:22;100202.75;;;14.46;33.39
63351;BME280;64988;51.058;17.040;2023-03-29T17:02:50;100201.22;;;14.34;33.73
63351;BME280;64988;51.058;17.040;2023-03-29T17:08:19;100200.09;;;14.17;34.19
63351;BME280;64988;51.058;17.040;2023-03-29T17:13:48;100202.09;;;14.06;34.26
63351;BME280;64988;51.058;17.040;2023-03-29T17:19:17;100196.69;;;13.96;34.87
63351;BME280;64988;51.058;17.040;2023-03-29T17:24:46;100202.13;;;13.77;35.41
63351;BME280;64988;51.058;17.040;2023-03-29T17:30:14;100191.00;;;13.51;36.18
63351;BME280;64988;51.058;17.040;2023-03-29T17:35:42;100188.84;;;13.64;36.03
63351;BME280;64988;51.058;17.040;2023-03-29T17:41:09;100189.00;;;13.53;36.74
63351;BME280;64988;51.058;17.040;2023-03-29T17:46:37;100190.00;;;13.43;36.79
63351;BME280;64988;51.058;17.040;2023-03-29T17:52:05;100186.00;;;13.28;37.47
63351;BME280;64988;51.058;17.040;2023-03-29T17:57:32;100193.66;;;13.13;38.21
63351;BME280;64988;51.058;17.040;2023-03-29T18:03:00;100194.47;;;13.04;38.76
63351;BME280;64988;51.058;17.040;2023-03-29T18:08:28;100208.59;;;13.07;38.69
63351;BME280;64988;51.058;17.040;2023-03-29T18:13:58;100199.19;;;13.02;38.93
63351;BME280;64988;51.058;17.040;2023-03-29T18:19:27;100200.09;;;12.82;39.75
63351;BME280;64988;51.058;17.040;2023-03-29T18:24:55;100204.09;;;12.78;39.72
63351;BME280;64988;51.058;17.040;2023-03-29T18:30:23;100207.16;;;12.63;40.24
63351;BME280;64988;51.058;17.040;2023-03-29T18:35:51;100214.28;;;12.64;40.58
63351;BME280;64988;51.058;17.040;2023-03-29T18:41:19;100196.28;;;12.54;40.35
63351;BME280;64988;51.058;17.040;2023-03-29T18:46:48;100195.91;;;12.38;40.80
63351;BME280;64988;51.058;17.040;2023-03-29T18:52:16;100200.63;;;12.36;40.91
63351;BME280;64988;51.058;17.040;2023-03-29T18:57:43;100199.38;;;12.40;41.66
63351;BME280;64988;51.058;17.040;2023-03-29T19:03:11;100191.19;;;12.60;40.87
63351;BME280;64988;51.058;17.040;2023-03-29T19:08:40;100201.22;;;12.70;41.11
63351;BME280;64988;51.058;17.040;2023-03-29T19:14:09;100187.69;;;12.70;41.36
63351;BME280;64988;51.058;17.040;2023-03-29T19:19:37;100192.50;;;12.66;41.30
63351;BME280;64988;51.058;17.040;2023-03-29T19:25:05;100192.63;;;12.64;41.46
63351;BME280;64988;51.058;17.040;2023-03-29T19:30:34;100183.78;;;12.62;41.55
63351;BME280;64988;51.058;17.040;2023-03-29T19:36:02;100175.97;;;12.69;42.02
63351;BME280;64988;51.058;17.040;2023-03-29T19:41:30;100182.97;;;12.72;42.28
63351;BME280;64988;51.058;17.040;2023-03-29T19:46:58;100177.94;;;12.67;42.34
63351;BME280;64988;51.058;17.040;2023-03-29T19:52:27;100163.53;;;12.67;42.79
63351;BME280;64988;51.058;17.040;2023-03-29T19:57:54;100172.97;;;12.62;42.74
63351;BME280;64988;51.058;17.040;2023-03-29T20:03:21;100155.41;;;12.67;43.11
63351;BME280;64988;51.058;17.040;2023-03-29T20:08:49;100154.59;;;12.66;43.47
63351;BME280;64988;51.058;17.040;2023-03-29T20:14:18;100152.00;;;12.64;43.52
63351;BME280;64988;51.058;17.040;2023-03-29T20:19:46;100143.44;;;12.59;43.41
63351;BME280;64988;51.058;17.040;2023-03-29T20:25:14;100151.81;;;12.47;43.56
63351;BME280;64988;51.058;17.040;2023-03-29T20:30:41;100147.66;;;12.43;44.41
63351;BME280;64988;51.058;17.040;2023-03-29T20:36:09;100141.50;;;12.41;44.85
63351;BME280;64988;51.058;17.040;2023-03-29T20:41:37;100147.78;;;12.41;44.84
63351;BME280;64988;51.058;17.040;2023-03-29T20:47:04;100144.75;;;12.35;44.95
63351;BME280;64988;51.058;17.040;2023-03-29T20:52:34;100139.00;;;12.19;45.72
63351;BME280;64988;51.058;17.040;2023-03-29T20:58:01;100133.78;;;12.06;45.87
63351;BME280;64988;51.058;17.040;2023-03-29T21:03:28;100125.09;;;12.02;45.76
63351;BME280;64988;51.058;17.040;2023-03-29T21:08:55;100119.63;;;11.93;46.54
63351;BME280;64988;51.058;17.040;2023-03-29T21:14:23;100107.75;;;12.05;46.76
63351;BME280;64988;51.058;17.040;2023-03-29T21:19:52;100106.59;;;11.98;46.44
63351;BME280;64988;51.058;17.040;2023-03-29T21:25:20;100100.34;;;12.07;46.86
63351;BME280;64988;51.058;17.040;2023-03-29T21:30:48;100088.50;;;11.98;46.49
63351;BME280;64988;51.058;17.040;2023-03-29T21:36:16;100085.56;;;11.81;47.29
63351;BME280;64988;51.058;17.040;2023-03-29T21:41:44;100084.03;;;11.46;48.52
63351;BME280;64988;51.058;17.040;2023-03-29T21:47:12;100082.81;;;11.19;49.44
63351;BME280;64988;51.058;17.040;2023-03-29T21:52:39;100072.94;;;11.08;49.53
63351;BME280;64988;51.058;17.040;2023-03-29T21:58:06;100066.63;;;10.87;50.00
63351;BME280;64988;51.058;17.040;2023-03-29T22:03:33;100079.59;;;10.93;49.79
63351;BME280;64988;51.058;17.040;2023-03-29T22:09:02;100074.09;;;11.15;49.92
63351;BME280;64988;51.058;17.040;2023-03-29T22:14:31;100064.44;;;11.33;49.49
63351;BME280;64988;51.058;17.040;2023-03-29T22:20:01;100055.34;;;11.55;49.55
63351;BME280;64988;51.058;17.040;2023-03-29T22:25:30;100045.81;;;11.72;49.50
63351;BME280;64988;51.058;17.040;2023-03-29T22:31:07;100036.63;;;11.63;49.61
63351;BME280;64988;51.058;17.040;2023-03-29T22:36:36;100032.00;;;11.75;49.48
63351;BME280;64988;51.058;17.040;2023-03-29T22:42:04;100022.09;;;11.85;49.17
63351;BME280;64988;51.058;17.040;2023-03-29T22:47:32;100022.69;;;11.68;49.42
63351;BME280;64988;51.058;17.040;2023-03-29T22:53:00;100014.00;;;11.64;50.43
63351;BME280;64988;51.058;17.040;2023-03-29T22:58:28;100016.81;;;11.83;50.15
63351;BME280;64988;51.058;17.040;2023-03-29T23:03:55;100010.06;;;11.98;49.70
63351;BME280;64988;51.058;17.040;2023-03-29T23:09:23;100018.91;;;12.10;49.45
63351;BME280;64988;51.058;17.040;2023-03-29T23:14:51;100014.38;;;12.10;49.36
63351;BME280;64988;51.058;17.040;2023-03-29T23:20:19;100006.84;;;12.14;49.48
63351;BME280;64988;51.058;17.040;2023-03-29T23:25:47;100004.28;;;12.22;49.36
63351;BME280;64988;51.058;17.040;2023-03-29T23:31:16;100003.16;;;12.25;49.71
63351;BME280;64988;51.058;17.040;2023-03-29T23:36:46;100008.72;;;12.23;50.08
63351;BME280;64988;51.058;17.040;2023-03-29T23:42:14;100002.38;;;12.03;50.33
63351;BME280;64988;51.058;17.040;2023-03-29T23:47:43;99996.34;;;11.90;51.04
63351;BME280;64988;51.058;17.040;2023-03-29T23:53:12;99990.00;;;12.01;50.56
63351;BME280;64988;51.058;17.040;2023-03-29T23:58:40;99977.88;;;11.95;49.85
